Time;durP1;ratioP1;P1;durP2;ratioP2;P2;SDS_P1;SDS_P2;PMS_P1;PMS_P2;Temp;Humidity;BMP_temperature;BMP_pressure;BME280_temperature;BME280_humidity;BME280_pressure;Samples;Min_cycle;Max_cycle;Signal;HPM_P1;HPM_P2
2023/06/24 00:02:06;;;;;;;31.58;18.02;;;;;;;;;;5064603;28;20114;-81
2023/06/24 00:04:33;;;;;;;37.03;18.77;;;;;;;;;;5066607;28;20040;-82
2023/06/24 00:07:00;;;;;;;29.88;17.55;;;;;;;;;;5066351;28;20041;-82
2023/06/24 00:09:29;;;;;;;40.00;17.77;;;;;;;;;;5065443;28;20048;-80
2023/06/24 00:11:58;;;;;;;29.42;17.92;;;;;;;;;;5064847;28;20079;-81
2023/06/24 00:14:26;;;;;;;34.05;18.15;;;;;;;;;;5065808;28;20060;-83
2023/06/24 00:16:53;;;;;;;32.60;17.85;;;;;;;;;;5065644;28;20033;-80
2023/06/24 00:19:20;;;;;;;36.25;19.30;;;;;;;;;;5066318;28;20060;-83
2023/06/24 00:21:48;;;;;;;32.75;19.95;;;;;;;;;;5067536;28;20048;-83
2023/06/24 00:24:15;;;;;;;36.63;19.25;;;;;;;;;;5064973;28;20037;-82
2023/06/24 00:26:41;;;;;;;34.45;19.35;;;;;;;;;;5067550;28;20371;-82
2023/06/24 00:29:08;;;;;;;34.35;19.17;;;;;;;;;;5070452;28;20146;-83
2023/06/24 00:31:36;;;;;;;36.70;19.85;;;;;;;;;;5049380;28;20222;-83
2023/06/24 00:34:04;;;;;;;30.80;18.70;;;;;;;;;;5069298;28;20052;-81
2023/06/24 00:36:36;;;;;;;33.70;19.60;;;;;;;;;;5086087;28;20524;-84
2023/06/24 00:39:03;;;;;;;32.80;18.60;;;;;;;;;;5066494;28;20052;-79
2023/06/24 00:41:30;;;;;;;42.15;19.45;;;;;;;;;;5047397;28;20061;-80
2023/06/24 00:43:58;;;;;;;33.55;18.38;;;;;;;;;;5064829;28;20041;-81
2023/06/24 00:46:25;;;;;;;32.60;18.38;;;;;;;;;;5084155;28;20537;-83
2023/06/24 00:48:53;;;;;;;34.15;18.05;;;;;;;;;;5071537;28;20048;-80
2023/06/24 00:51:21;;;;;;;32.50;18.15;;;;;;;;;;5090040;28;20056;-83
2023/06/24 00:53:50;;;;;;;34.67;18.60;;;;;;;;;;5067354;28;20688;-83
2023/06/24 00:56:18;;;;;;;32.33;17.45;;;;;;;;;;5069394;28;20045;-83
2023/06/24 00:58:47;;;;;;;28.80;17.63;;;;;;;;;;5074361;28;20862;-83
2023/06/24 01:01:14;;;;;;;33.53;18.33;;;;;;;;;;5073809;28;20114;-83
2023/06/24 01:03:41;;;;;;;29.58;17.55;;;;;;;;;;5068057;28;20040;-84
2023/06/24 01:06:09;;;;;;;36.63;19.42;;;;;;;;;;5050737;28;20556;-84
2023/06/24 01:08:37;;;;;;;37.15;19.58;;;;;;;;;;5054935;28;20045;-85
2023/06/24 01:11:04;;;;;;;30.17;18.33;;;;;;;;;;5053099;28;20128;-84
2023/06/24 01:13:30;;;;;;;34.25;18.75;;;;;;;;;;5050797;28;20062;-82
2023/06/24 01:16:00;;;;;;;35.08;18.42;;;;;;;;;;5052460;28;20051;-84
2023/06/24 01:18:32;;;;;;;35.00;19.77;;;;;;;;;;5072427;28;20048;-83
2023/06/24 01:21:04;;;;;;;38.60;18.77;;;;;;;;;;5052269;28;20044;-84
2023/06/24 01:23:51;;;;;;;34.17;18.85;;;;;;;;;;5057094;28;20037;-83
2023/06/24 01:26:24;;;;;;;34.22;17.77;;;;;;;;;;5051994;28;20071;-85
2023/06/24 01:28:56;;;;;;;33.17;19.15;;;;;;;;;;5057928;28;20048;-84
2023/06/24 01:31:35;;;;;;;33.47;18.00;;;;;;;;;;5056864;28;20588;-83
2023/06/24 01:34:06;;;;;;;35.03;19.73;;;;;;;;;;5055785;28;20052;-83
2023/06/24 01:36:34;;;;;;;31.65;18.70;;;;;;;;;;5052228;28;20101;-85
2023/06/24 01:39:03;;;;;;;37.60;19.67;;;;;;;;;;5050908;28;20057;-84
2023/06/24 01:41:32;;;;;;;35.00;19.77;;;;;;;;;;5050241;28;20102;-83
2023/06/24 01:43:59;;;;;;;37.13;20.00;;;;;;;;;;5066851;28;20409;-84
2023/06/24 01:46:27;;;;;;;34.70;19.67;;;;;;;;;;5071226;28;20060;-83
2023/06/24 01:48:55;;;;;;;36.83;19.35;;;;;;;;;;5071933;28;20041;-84
2023/06/24 01:51:23;;;;;;;36.08;18.95;;;;;;;;;;5072086;28;20071;-85
2023/06/24 01:53:52;;;;;;;35.60;19.10;;;;;;;;;;5073108;28;20032;-83
2023/06/24 01:56:20;;;;;;;38.60;19.25;;;;;;;;;;5054399;28;20443;-83
2023/06/24 01:58:47;;;;;;;36.38;19.00;;;;;;;;;;5047810;28;20049;-84
2023/06/24 02:01:15;;;;;;;35.28;18.55;;;;;;;;;;5033940;28;20055;-84
2023/06/24 02:03:42;;;;;;;39.28;19.77;;;;;;;;;;5050872;28;20053;-85
2023/06/24 02:06:12;;;;;;;39.72;20.45;;;;;;;;;;5033474;28;20673;-84
2023/06/24 02:08:40;;;;;;;34.40;18.83;;;;;;;;;;5053350;28;20064;-85
2023/06/24 02:11:08;;;;;;;33.40;18.92;;;;;;;;;;5048082;28;20049;-86
2023/06/24 02:13:35;;;;;;;31.27;18.80;;;;;;;;;;5050386;28;20440;-84
2023/06/24 02:16:03;;;;;;;31.17;18.85;;;;;;;;;;5051854;28;20041;-84
2023/06/24 02:18:30;;;;;;;35.33;20.02;;;;;;;;;;5052366;28;20139;-84
2023/06/24 02:20:56;;;;;;;33.75;19.40;;;;;;;;;;5051556;28;20094;-85
2023/06/24 02:23:23;;;;;;;34.05;19.45;;;;;;;;;;5054390;28;20071;-83
2023/06/24 02:25:50;;;;;;;34.80;19.42;;;;;;;;;;5030116;28;20068;-84
2023/06/24 02:28:17;;;;;;;34.70;19.38;;;;;;;;;;5046858;28;20119;-84
2023/06/24 02:30:45;;;;;;;36.67;20.20;;;;;;;;;;5046206;28;20117;-84
2023/06/24 02:33:13;;;;;;;35.97;19.48;;;;;;;;;;5046496;28;20044;-84
2023/06/24 02:35:41;;;;;;;40.60;20.63;;;;;;;;;;5047091;28;20087;-83
2023/06/24 02:38:08;;;;;;;39.03;21.00;;;;;;;;;;5046222;28;20060;-84
2023/06/24 02:40:35;;;;;;;39.05;20.50;;;;;;;;;;5029452;28;20068;-84
2023/06/24 02:43:01;;;;;;;43.65;21.33;;;;;;;;;;5048139;28;20048;-83
2023/06/24 02:45:29;;;;;;;34.97;20.52;;;;;;;;;;5047989;28;20138;-81
2023/06/24 02:47:56;;;;;;;41.58;20.33;;;;;;;;;;5066857;28;20049;-82
2023/06/24 02:50:23;;;;;;;37.25;20.60;;;;;;;;;;5034164;28;20075;-84
2023/06/24 02:52:50;;;;;;;38.55;20.40;;;;;;;;;;5049911;28;20123;-81
2023/06/24 02:55:22;;;;;;;38.75;20.52;;;;;;;;;;5036354;28;20037;-85
2023/06/24 02:57:53;;;;;;;36.90;20.70;;;;;;;;;;5041078;28;20040;-84
2023/06/24 03:00:35;;;;;;;37.10;20.40;;;;;;;;;;5047159;28;20044;-83
2023/06/24 03:03:07;;;;;;;36.50;20.60;;;;;;;;;;5048282;28;20049;-83
2023/06/24 03:05:39;;;;;;;39.95;22.33;;;;;;;;;;5050346;28;20075;-84
2023/06/24 03:08:05;;;;;;;48.00;22.67;;;;;;;;;;5034631;28;20070;-85
2023/06/24 03:10:35;;;;;;;43.10;22.83;;;;;;;;;;5049847;28;20068;-84
2023/06/24 03:13:03;;;;;;;41.45;21.65;;;;;;;;;;5049307;28;20056;-85
2023/06/24 03:15:40;;;;;;;50.85;22.75;;;;;;;;;;5049413;28;20076;-86
2023/06/24 03:18:07;;;;;;;47.08;23.52;;;;;;;;;;5051256;28;20041;-85
2023/06/24 03:20:38;;;;;;;54.38;24.75;;;;;;;;;;5051982;28;20525;-84
2023/06/24 03:23:10;;;;;;;50.38;24.45;;;;;;;;;;5052096;28;20072;-84
2023/06/24 03:25:38;;;;;;;51.13;24.65;;;;;;;;;;5050474;28;20057;-85
2023/06/24 03:28:07;;;;;;;46.67;24.52;;;;;;;;;;5051769;28;20040;-83
2023/06/24 03:30:38;;;;;;;54.30;25.35;;;;;;;;;;5049095;28;20124;-82
2023/06/24 03:33:05;;;;;;;50.97;25.70;;;;;;;;;;5047680;28;20121;-82
2023/06/24 03:35:32;;;;;;;51.78;25.33;;;;;;;;;;5049986;28;20087;-82
2023/06/24 03:38:03;;;;;;;49.97;26.02;;;;;;;;;;5050015;28;20329;-82
2023/06/24 03:40:31;;;;;;;46.15;26.48;;;;;;;;;;5032397;28;20049;-83
2023/06/24 03:42:58;;;;;;;52.08;26.17;;;;;;;;;;5050744;28;20053;-85
2023/06/24 03:45:24;;;;;;;48.03;25.17;;;;;;;;;;5060644;28;20044;-87
2023/06/24 03:47:51;;;;;;;53.22;26.08;;;;;;;;;;5052274;28;20124;-86
2023/06/24 03:50:18;;;;;;;49.83;25.98;;;;;;;;;;5049350;28;20116;-82
2023/06/24 03:52:44;;;;;;;43.80;24.60;;;;;;;;;;5049824;28;20059;-83
2023/06/24 03:55:11;;;;;;;48.97;24.02;;;;;;;;;;5031376;28;20044;-83
2023/06/24 03:57:38;;;;;;;48.60;24.70;;;;;;;;;;5048498;28;20123;-82
2023/06/24 04:00:14;;;;;;;46.33;24.65;;;;;;;;;;5049409;28;20045;-84
2023/06/24 04:02:42;;;;;;;45.33;23.40;;;;;;;;;;5038750;28;20495;-84
2023/06/24 04:05:10;;;;;;;45.67;24.05;;;;;;;;;;5051305;28;20069;-81
2023/06/24 04:07:36;;;;;;;37.92;22.55;;;;;;;;;;5047937;28;20045;-82
2023/06/24 04:10:04;;;;;;;40.17;23.17;;;;;;;;;;5049826;28;20060;-82
2023/06/24 04:12:30;;;;;;;40.33;22.75;;;;;;;;;;5021243;28;20109;-83
2023/06/24 04:14:57;;;;;;;43.58;23.50;;;;;;;;;;5013201;28;20065;-83
2023/06/24 04:17:23;;;;;;;42.13;23.73;;;;;;;;;;5047468;28;20040;-82
2023/06/24 04:19:50;;;;;;;49.53;25.73;;;;;;;;;;5048691;28;20049;-83
2023/06/24 04:22:17;;;;;;;43.78;24.70;;;;;;;;;;5050156;28;20052;-80
2023/06/24 04:24:43;;;;;;;46.53;26.33;;;;;;;;;;5050441;28;20520;-82
2023/06/24 04:27:10;;;;;;;42.08;24.92;;;;;;;;;;5047735;28;20075;-81
2023/06/24 04:29:37;;;;;;;43.70;24.88;;;;;;;;;;5049929;28;20053;-81
2023/06/24 04:32:04;;;;;;;46.95;24.58;;;;;;;;;;5050549;28;20067;-81
2023/06/24 04:34:30;;;;;;;41.88;23.38;;;;;;;;;;5052823;28;20130;-83
2023/06/24 04:36:57;;;;;;;44.85;24.58;;;;;;;;;;5048380;28;20490;-80
2023/06/24 04:39:23;;;;;;;36.75;23.40;;;;;;;;;;5051128;28;20045;-83
2023/06/24 04:41:50;;;;;;;44.75;23.30;;;;;;;;;;5049748;28;21210;-81
2023/06/24 04:44:17;;;;;;;46.15;22.10;;;;;;;;;;5050567;28;20071;-81
2023/06/24 04:46:43;;;;;;;34.70;21.58;;;;;;;;;;5052832;28;20140;-80
2023/06/24 04:49:10;;;;;;;28.95;19.65;;;;;;;;;;5050490;28;20052;-82
2023/06/24 04:51:36;;;;;;;34.65;18.77;;;;;;;;;;5052200;28;20072;-81
2023/06/24 04:54:03;;;;;;;36.80;19.98;;;;;;;;;;5050723;28;20072;-80
2023/06/24 04:56:30;;;;;;;36.92;19.88;;;;;;;;;;5050627;28;20063;-82
2023/06/24 04:58:56;;;;;;;36.40;19.20;;;;;;;;;;5053766;28;20742;-83
2023/06/24 05:01:23;;;;;;;31.02;18.85;;;;;;;;;;5050162;28;20140;-81
2023/06/24 05:03:50;;;;;;;32.33;17.73;;;;;;;;;;5052930;28;20456;-80
2023/06/24 05:06:16;;;;;;;36.80;18.33;;;;;;;;;;5051627;28;20736;-81
2023/06/24 05:08:43;;;;;;;32.20;18.55;;;;;;;;;;5052626;28;20144;-81
2023/06/24 05:11:09;;;;;;;34.28;19.67;;;;;;;;;;5045472;28;20507;-81
2023/06/24 05:13:37;;;;;;;34.80;19.52;;;;;;;;;;5073507;28;20048;-82
2023/06/24 05:16:03;;;;;;;33.47;19.83;;;;;;;;;;5074262;28;20036;-80
2023/06/24 05:18:30;;;;;;;32.55;19.60;;;;;;;;;;5074016;28;20486;-80
2023/06/24 05:20:56;;;;;;;33.38;19.40;;;;;;;;;;5073102;28;20040;-82
2023/06/24 05:23:23;;;;;;;34.05;18.25;;;;;;;;;;5073004;28;20045;-81
2023/06/24 05:25:49;;;;;;;38.00;18.13;;;;;;;;;;5071742;28;20873;-80
2023/06/24 05:28:16;;;;;;;27.58;15.95;;;;;;;;;;5073410;28;20059;-82
2023/06/24 05:30:44;;;;;;;33.25;17.60;;;;;;;;;;5071333;28;20079;-82
2023/06/24 05:33:11;;;;;;;34.78;16.77;;;;;;;;;;5071912;28;20123;-81
2023/06/24 05:35:40;;;;;;;28.02;15.90;;;;;;;;;;5072543;28;20064;-81
2023/06/24 05:38:07;;;;;;;26.55;16.33;;;;;;;;;;5054168;28;20048;-81
2023/06/24 05:40:33;;;;;;;33.25;16.75;;;;;;;;;;5054320;28;20050;-82
2023/06/24 05:43:00;;;;;;;28.73;16.95;;;;;;;;;;5053025;28;20048;-80
2023/06/24 05:45:27;;;;;;;29.13;16.40;;;;;;;;;;5077469;28;20045;-82
2023/06/24 05:47:53;;;;;;;32.67;16.63;;;;;;;;;;5056533;28;20045;-82
2023/06/24 05:50:20;;;;;;;26.50;15.93;;;;;;;;;;5056373;28;20463;-83
2023/06/24 05:52:47;;;;;;;30.77;16.77;;;;;;;;;;5055148;28;20064;-82
2023/06/24 05:55:14;;;;;;;30.17;16.00;;;;;;;;;;5073461;28;20158;-83
2023/06/24 05:57:40;;;;;;;34.10;17.10;;;;;;;;;;5027811;28;20049;-82
2023/06/24 06:00:07;;;;;;;28.42;15.73;;;;;;;;;;5014762;28;20571;-84
2023/06/24 06:02:43;;;;;;;26.58;16.33;;;;;;;;;;5041380;28;20053;-84
2023/06/24 06:05:10;;;;;;;30.88;17.02;;;;;;;;;;5053323;28;20062;-83
2023/06/24 06:07:39;;;;;;;37.53;19.30;;;;;;;;;;5032920;28;20208;-83
2023/06/24 06:10:06;;;;;;;30.98;19.48;;;;;;;;;;5034034;28;20049;-83
2023/06/24 06:12:33;;;;;;;34.05;19.63;;;;;;;;;;5039869;28;20056;-84
2023/06/24 06:15:02;;;;;;;33.03;19.65;;;;;;;;;;5035777;28;20045;-81
2023/06/24 06:17:29;;;;;;;33.60;18.92;;;;;;;;;;5045800;28;20048;-83
2023/06/24 06:19:56;;;;;;;34.58;18.75;;;;;;;;;;5068907;28;20107;-81
2023/06/24 06:22:22;;;;;;;24.50;16.70;;;;;;;;;;5050710;28;20446;-82
2023/06/24 06:24:49;;;;;;;29.45;17.48;;;;;;;;;;5047154;28;20041;-82
2023/06/24 06:27:15;;;;;;;27.92;16.80;;;;;;;;;;5052276;28;20578;-80
2023/06/24 06:29:42;;;;;;;28.00;16.52;;;;;;;;;;5048281;28;20072;-83
2023/06/24 06:32:09;;;;;;;26.63;14.98;;;;;;;;;;5037473;28;20045;-82
2023/06/24 06:34:36;;;;;;;35.97;16.48;;;;;;;;;;5047548;28;20044;-84
2023/06/24 06:37:03;;;;;;;28.00;16.27;;;;;;;;;;5050105;28;20045;-82
2023/06/24 06:39:30;;;;;;;29.17;15.35;;;;;;;;;;5041921;28;20076;-80
2023/06/24 06:41:56;;;;;;;25.42;14.88;;;;;;;;;;5045402;28;20072;-81
2023/06/24 06:44:23;;;;;;;23.20;13.68;;;;;;;;;;5055545;28;20029;-81
2023/06/24 06:46:50;;;;;;;17.60;12.23;;;;;;;;;;5080495;28;20040;-80
2023/06/24 06:49:16;;;;;;;20.38;12.13;;;;;;;;;;5076874;28;20140;-83
2023/06/24 06:51:43;;;;;;;22.08;12.45;;;;;;;;;;5073814;28;20499;-83
2023/06/24 06:54:09;;;;;;;19.98;12.02;;;;;;;;;;5071774;28;20390;-83
2023/06/24 06:56:36;;;;;;;22.30;12.10;;;;;;;;;;5061835;28;20076;-81
2023/06/24 06:59:03;;;;;;;21.80;11.57;;;;;;;;;;5051088;28;20119;-85
2023/06/24 07:01:29;;;;;;;18.27;11.43;;;;;;;;;;5071827;28;20044;-82
2023/06/24 07:03:56;;;;;;;20.77;11.40;;;;;;;;;;5072421;28;20044;-83
2023/06/24 07:06:23;;;;;;;17.77;9.85;;;;;;;;;;5046794;28;20486;-81
2023/06/24 07:08:49;;;;;;;14.73;9.20;;;;;;;;;;5050866;28;20136;-82
2023/06/24 07:11:16;;;;;;;16.38;9.30;;;;;;;;;;5048101;28;20044;-83
2023/06/24 07:13:44;;;;;;;17.92;9.50;;;;;;;;;;5052657;28;20049;-82
2023/06/24 07:16:11;;;;;;;19.25;8.82;;;;;;;;;;5033200;28;20049;-82
2023/06/24 07:18:37;;;;;;;14.57;9.00;;;;;;;;;;5048218;28;20060;-81
2023/06/24 07:21:04;;;;;;;17.20;9.45;;;;;;;;;;5038497;28;20128;-81
2023/06/24 07:23:30;;;;;;;17.80;10.98;;;;;;;;;;5052283;28;20181;-80
2023/06/24 07:25:57;;;;;;;19.92;10.90;;;;;;;;;;5048359;28;20041;-80
2023/06/24 07:28:26;;;;;;;18.25;8.68;;;;;;;;;;5042131;28;20715;-79
2023/06/24 07:30:53;;;;;;;20.83;9.32;;;;;;;;;;5027898;28;20556;-79
2023/06/24 07:33:19;;;;;;;17.33;7.88;;;;;;;;;;5047438;28;20526;-78
2023/06/24 07:35:46;;;;;;;14.70;8.45;;;;;;;;;;5041980;28;20376;-79
2023/06/24 07:38:12;;;;;;;16.05;6.60;;;;;;;;;;5049295;28;20040;-83
2023/06/24 07:40:39;;;;;;;15.73;6.50;;;;;;;;;;5038733;28;20041;-83
2023/06/24 07:43:06;;;;;;;10.80;6.60;;;;;;;;;;5043805;28;20849;-80
2023/06/24 07:45:32;;;;;;;14.88;6.78;;;;;;;;;;5049481;28;20131;-79
2023/06/24 07:47:59;;;;;;;10.48;6.35;;;;;;;;;;5049063;28;20152;-81
2023/06/24 07:50:26;;;;;;;11.13;6.35;;;;;;;;;;5050009;28;20087;-79
2023/06/24 07:52:52;;;;;;;10.50;5.93;;;;;;;;;;5022815;28;20056;-80
2023/06/24 07:55:19;;;;;;;13.77;5.70;;;;;;;;;;5047155;28;20044;-81
2023/06/24 07:57:46;;;;;;;8.63;5.70;;;;;;;;;;5039560;28;20144;-83
2023/06/24 08:00:13;;;;;;;10.48;5.95;;;;;;;;;;5044627;28;20041;-79
2023/06/24 08:02:42;;;;;;;13.60;6.00;;;;;;;;;;5048574;28;20068;-81
2023/06/24 08:05:09;;;;;;;16.42;5.97;;;;;;;;;;5049748;28;20072;-81
2023/06/24 08:07:36;;;;;;;10.70;6.10;;;;;;;;;;5024544;28;20049;-80
2023/06/24 08:10:03;;;;;;;10.70;5.82;;;;;;;;;;5024803;28;20057;-80
2023/06/24 08:12:29;;;;;;;7.35;5.45;;;;;;;;;;5035949;28;20095;-79
2023/06/24 08:14:56;;;;;;;12.80;5.78;;;;;;;;;;5049748;28;20048;-81
2023/06/24 08:17:22;;;;;;;8.85;5.78;;;;;;;;;;5051714;28;20123;-81
2023/06/24 08:19:49;;;;;;;12.20;6.07;;;;;;;;;;5067527;28;20049;-83
2023/06/24 08:22:15;;;;;;;10.65;5.72;;;;;;;;;;5032940;28;20049;-82
2023/06/24 08:24:42;;;;;;;10.23;5.70;;;;;;;;;;5025784;28;20068;-83
2023/06/24 08:27:09;;;;;;;10.05;5.22;;;;;;;;;;5034519;28;20128;-80
2023/06/24 08:29:35;;;;;;;12.10;5.32;;;;;;;;;;5043944;28;20041;-81
2023/06/24 08:32:02;;;;;;;8.93;5.00;;;;;;;;;;5057530;28;20656;-81
2023/06/24 08:34:28;;;;;;;13.95;5.30;;;;;;;;;;5018228;28;20509;-81
2023/06/24 08:36:55;;;;;;;12.02;5.22;;;;;;;;;;5029466;28;20041;-81
2023/06/24 08:39:22;;;;;;;12.73;5.07;;;;;;;;;;5035830;28;20591;-83
2023/06/24 08:41:49;;;;;;;7.25;4.45;;;;;;;;;;5047767;28;20060;-83
2023/06/24 08:44:16;;;;;;;9.63;4.97;;;;;;;;;;5055609;28;20107;-83
2023/06/24 08:46:43;;;;;;;13.35;5.40;;;;;;;;;;5033555;28;20050;-81
2023/06/24 08:49:09;;;;;;;6.90;4.65;;;;;;;;;;5043292;28;20045;-82
2023/06/24 08:51:41;;;;;;;12.07;6.50;;;;;;;;;;5027954;28;20072;-80
2023/06/24 08:54:09;;;;;;;10.45;5.95;;;;;;;;;;5043393;28;20050;-81
2023/06/24 08:56:40;;;;;;;6.75;4.80;;;;;;;;;;5038719;28;20060;-82
2023/06/24 08:59:06;;;;;;;12.95;5.72;;;;;;;;;;5047925;28;20051;-83
2023/06/24 09:01:33;;;;;;;11.00;5.68;;;;;;;;;;5063948;28;20072;-81
2023/06/24 09:04:00;;;;;;;10.60;5.07;;;;;;;;;;5047015;28;20712;-82
2023/06/24 09:06:27;;;;;;;9.07;5.18;;;;;;;;;;5031666;28;20099;-79
2023/06/24 09:08:57;;;;;;;14.27;5.28;;;;;;;;;;5050324;28;20049;-80
2023/06/24 09:11:24;;;;;;;10.13;5.50;;;;;;;;;;5013988;28;20119;-81
2023/06/24 09:13:57;;;;;;;10.88;6.22;;;;;;;;;;5025139;28;20116;-81
2023/06/24 09:16:24;;;;;;;8.90;5.85;;;;;;;;;;5037939;28;20043;-83
2023/06/24 09:18:51;;;;;;;10.07;5.50;;;;;;;;;;5054299;28;20048;-81
2023/06/24 09:21:36;;;;;;;12.50;5.22;;;;;;;;;;5034712;28;20122;-80
2023/06/24 09:24:03;;;;;;;8.88;5.25;;;;;;;;;;5054740;28;20045;-80
2023/06/24 09:26:30;;;;;;;10.68;5.53;;;;;;;;;;5055808;28;20099;-79
2023/06/24 09:28:57;;;;;;;9.88;5.55;;;;;;;;;;5039800;28;20141;-81
2023/06/24 09:31:23;;;;;;;8.23;5.22;;;;;;;;;;5036804;28;20052;-82
2023/06/24 09:33:50;;;;;;;9.23;4.97;;;;;;;;;;5054887;28;20049;-79
2023/06/24 09:36:17;;;;;;;11.15;6.47;;;;;;;;;;5036881;28;20053;-81
2023/06/24 09:38:44;;;;;;;12.45;5.47;;;;;;;;;;5038812;28;20048;-80
2023/06/24 09:41:12;;;;;;;7.28;4.70;;;;;;;;;;5055406;28;20045;-80
2023/06/24 09:43:42;;;;;;;9.75;5.35;;;;;;;;;;5031837;28;20109;-80
2023/06/24 09:46:08;;;;;;;7.38;5.18;;;;;;;;;;5037393;28;20216;-79
2023/06/24 09:48:35;;;;;;;6.53;4.70;;;;;;;;;;5056973;28;20068;-79
2023/06/24 09:51:03;;;;;;;7.95;4.75;;;;;;;;;;5021933;28;20037;-78
2023/06/24 09:53:30;;;;;;;6.90;4.85;;;;;;;;;;5038968;28;20041;-79
2023/06/24 09:55:58;;;;;;;7.85;4.20;;;;;;;;;;5056374;28;20044;-78
2023/06/24 09:58:25;;;;;;;9.50;4.20;;;;;;;;;;5055340;28;20052;-78
2023/06/24 10:00:52;;;;;;;6.38;4.70;;;;;;;;;;5055574;28;20036;-79
2023/06/24 10:03:19;;;;;;;10.70;5.63;;;;;;;;;;5037064;28;20063;-80
2023/06/24 10:05:45;;;;;;;9.32;5.00;;;;;;;;;;5036139;28;20230;-81
2023/06/24 10:08:13;;;;;;;8.45;4.68;;;;;;;;;;5036418;28;20033;-80
2023/06/24 10:10:40;;;;;;;10.05;4.75;;;;;;;;;;5055238;28;20128;-79
2023/06/24 10:13:07;;;;;;;9.98;4.80;;;;;;;;;;5053926;28;20047;-81
2023/06/24 10:15:34;;;;;;;9.40;4.38;;;;;;;;;;5036179;28;20045;-80
2023/06/24 10:18:02;;;;;;;8.38;4.72;;;;;;;;;;5035324;28;20040;-81
2023/06/24 10:20:41;;;;;;;10.40;4.75;;;;;;;;;;5054346;28;20045;-81
2023/06/24 10:23:08;;;;;;;10.05;4.53;;;;;;;;;;5054848;28;20136;-80
2023/06/24 10:25:37;;;;;;;9.43;4.35;;;;;;;;;;5053855;28;20044;-81
2023/06/24 10:28:04;;;;;;;6.47;4.43;;;;;;;;;;5036985;28;20060;-82
2023/06/24 10:30:33;;;;;;;6.88;4.07;;;;;;;;;;5055029;28;20753;-82
2023/06/24 10:33:00;;;;;;;8.15;4.18;;;;;;;;;;5054667;28;20044;-81
2023/06/24 10:35:29;;;;;;;8.23;5.32;;;;;;;;;;5060145;28;20045;-79
2023/06/24 10:37:57;;;;;;;8.02;4.30;;;;;;;;;;5056043;28;20049;-81
2023/06/24 10:40:37;;;;;;;7.35;4.10;;;;;;;;;;5056301;28;20068;-80
2023/06/24 10:43:22;;;;;;;9.02;4.47;;;;;;;;;;5046075;28;20049;-80
2023/06/24 10:45:52;;;;;;;7.47;4.27;;;;;;;;;;5053626;28;20060;-81
2023/06/24 10:48:20;;;;;;;8.23;3.78;;;;;;;;;;5077492;28;20041;-82
2023/06/24 10:50:47;;;;;;;7.07;3.83;;;;;;;;;;5041931;28;20512;-79
2023/06/24 10:53:13;;;;;;;6.15;4.22;;;;;;;;;;5054688;28;20036;-80
2023/06/24 10:55:41;;;;;;;8.23;4.15;;;;;;;;;;5054290;28;20050;-77
2023/06/24 10:58:09;;;;;;;7.53;4.32;;;;;;;;;;5071628;28;20067;-79
2023/06/24 11:00:39;;;;;;;6.43;4.25;;;;;;;;;;5072101;28;20443;-79
2023/06/24 11:03:12;;;;;;;11.50;4.45;;;;;;;;;;5076166;28;20063;-80
2023/06/24 11:05:44;;;;;;;8.38;4.20;;;;;;;;;;5071946;28;20037;-79
2023/06/24 11:08:11;;;;;;;8.88;4.20;;;;;;;;;;5075556;28;20044;-79
2023/06/24 11:10:44;;;;;;;7.38;4.50;;;;;;;;;;5072726;28;20432;-79
2023/06/24 11:13:11;;;;;;;7.85;4.05;;;;;;;;;;5071696;28;20044;-79
2023/06/24 11:15:42;;;;;;;9.90;3.75;;;;;;;;;;5074625;28;20052;-79
2023/06/24 11:18:10;;;;;;;6.20;3.92;;;;;;;;;;5077743;28;20045;-80
2023/06/24 11:20:37;;;;;;;5.68;3.70;;;;;;;;;;5061509;28;20059;-80
2023/06/24 11:23:09;;;;;;;5.40;3.75;;;;;;;;;;5078517;28;20048;-80
2023/06/24 11:25:41;;;;;;;7.80;4.40;;;;;;;;;;5061026;28;20051;-81
2023/06/24 11:28:17;;;;;;;6.35;3.65;;;;;;;;;;5054798;28;20052;-81
2023/06/24 11:30:49;;;;;;;9.98;3.90;;;;;;;;;;5057445;28;20048;-78
2023/06/24 11:33:26;;;;;;;8.07;4.13;;;;;;;;;;5045858;28;20087;-81
2023/06/24 11:35:53;;;;;;;6.95;3.90;;;;;;;;;;5022155;28;20034;-80
2023/06/24 11:38:21;;;;;;;6.75;3.90;;;;;;;;;;5048054;28;20116;-81
2023/06/24 11:40:50;;;;;;;4.97;3.60;;;;;;;;;;5062109;28;20036;-80
2023/06/24 11:43:17;;;;;;;5.10;3.40;;;;;;;;;;5046261;28;20171;-80
2023/06/24 11:45:47;;;;;;;7.45;3.95;;;;;;;;;;5038070;28;20049;-79
2023/06/24 11:48:22;;;;;;;7.68;3.67;;;;;;;;;;5041130;28;20045;-78
2023/06/24 11:50:58;;;;;;;6.55;3.78;;;;;;;;;;5036949;28;20098;-79
2023/06/24 11:53:40;;;;;;;6.53;3.70;;;;;;;;;;5057246;28;20132;-81
2023/06/24 11:56:06;;;;;;;6.28;3.53;;;;;;;;;;5058503;28;20037;-82
2023/06/24 11:58:37;;;;;;;4.90;3.70;;;;;;;;;;5040044;28;20080;-81
2023/06/24 12:01:03;;;;;;;6.55;3.38;;;;;;;;;;5040219;28;20041;-81
2023/06/24 12:03:32;;;;;;;4.50;3.33;;;;;;;;;;5053466;28;20038;-80
2023/06/24 12:06:00;;;;;;;5.93;3.40;;;;;;;;;;5053060;28;20045;-83
2023/06/24 12:08:26;;;;;;;7.40;3.70;;;;;;;;;;5055094;28;20049;-81
2023/06/24 12:11:02;;;;;;;4.90;3.55;;;;;;;;;;5057601;28;20148;-82
2023/06/24 12:13:28;;;;;;;5.28;3.97;;;;;;;;;;5061972;28;20048;-83
2023/06/24 12:15:55;;;;;;;5.78;3.75;;;;;;;;;;5061061;28;20048;-82
2023/06/24 12:18:27;;;;;;;7.18;3.80;;;;;;;;;;5061044;28;20104;-78
2023/06/24 12:20:54;;;;;;;4.97;3.67;;;;;;;;;;5058847;28;20069;-83
2023/06/24 12:23:21;;;;;;;9.02;3.78;;;;;;;;;;5032590;28;20049;-80
2023/06/24 12:25:48;;;;;;;6.40;3.03;;;;;;;;;;5043895;28;20051;-80
2023/06/24 12:28:14;;;;;;;6.03;3.30;;;;;;;;;;5017859;28;20079;-83
2023/06/24 12:30:41;;;;;;;5.93;3.85;;;;;;;;;;5041947;28;20040;-82
2023/06/24 12:33:08;;;;;;;5.60;3.50;;;;;;;;;;5036499;28;20064;-80
2023/06/24 12:35:35;;;;;;;10.02;3.47;;;;;;;;;;5056072;28;20049;-81
2023/06/24 12:38:05;;;;;;;5.40;3.70;;;;;;;;;;5055271;28;20037;-82
2023/06/24 12:40:35;;;;;;;5.88;3.30;;;;;;;;;;5042709;28;20135;-79
2023/06/24 12:43:04;;;;;;;3.75;3.00;;;;;;;;;;5036611;28;20038;-82
2023/06/24 12:45:31;;;;;;;6.80;3.13;;;;;;;;;;5066635;28;20128;-80
2023/06/24 12:47:59;;;;;;;5.30;3.40;;;;;;;;;;5054424;28;20492;-83
2023/06/24 12:50:26;;;;;;;4.72;3.50;;;;;;;;;;5080488;28;20071;-82
2023/06/24 12:52:54;;;;;;;4.70;3.28;;;;;;;;;;5058865;28;20104;-81
2023/06/24 12:55:23;;;;;;;6.25;3.33;;;;;;;;;;5080599;28;20072;-80
2023/06/24 12:57:49;;;;;;;6.20;3.38;;;;;;;;;;5062603;28;20083;-81
2023/06/24 13:00:19;;;;;;;6.25;3.20;;;;;;;;;;5051874;28;20041;-81
2023/06/24 13:02:45;;;;;;;5.38;3.65;;;;;;;;;;5060003;28;20122;-80
2023/06/24 13:05:12;;;;;;;4.30;3.38;;;;;;;;;;5038657;28;20045;-79
2023/06/24 13:07:39;;;;;;;6.88;3.70;;;;;;;;;;5063357;28;20055;-79
2023/06/24 13:10:06;;;;;;;6.35;3.30;;;;;;;;;;5051054;28;20729;-80
2023/06/24 13:12:33;;;;;;;6.13;3.58;;;;;;;;;;5057811;28;20121;-78
2023/06/24 13:15:00;;;;;;;7.10;3.78;;;;;;;;;;5058773;28;20092;-79
2023/06/24 13:17:26;;;;;;;6.70;3.40;;;;;;;;;;5041502;28;20041;-78
2023/06/24 13:19:53;;;;;;;6.38;3.50;;;;;;;;;;5057703;28;20049;-80
2023/06/24 13:22:20;;;;;;;7.75;3.40;;;;;;;;;;5057436;28;20512;-81
2023/06/24 13:24:46;;;;;;;4.05;3.25;;;;;;;;;;5057208;28;20051;-79
2023/06/24 13:27:13;;;;;;;5.85;3.15;;;;;;;;;;5056824;28;20041;-83
2023/06/24 13:29:39;;;;;;;3.80;3.20;;;;;;;;;;5056504;28;20062;-79
2023/06/24 13:32:06;;;;;;;5.18;3.38;;;;;;;;;;5056540;28;20544;-78
2023/06/24 13:34:33;;;;;;;5.50;3.10;;;;;;;;;;5056978;28;20177;-78
2023/06/24 13:36:59;;;;;;;6.18;3.13;;;;;;;;;;5057194;28;20532;-79
2023/06/24 13:39:27;;;;;;;6.57;3.45;;;;;;;;;;5056743;28;20186;-79
2023/06/24 13:41:54;;;;;;;5.97;3.17;;;;;;;;;;5040881;28;20136;-80
2023/06/24 13:44:21;;;;;;;6.78;3.22;;;;;;;;;;5064764;28;20082;-80
2023/06/24 13:46:49;;;;;;;6.53;4.00;;;;;;;;;;5045085;28;20239;-81
2023/06/24 13:49:16;;;;;;;6.88;3.50;;;;;;;;;;5025241;28;20057;-80
2023/06/24 13:51:57;;;;;;;5.47;3.25;;;;;;;;;;5043856;28;20049;-80
2023/06/24 13:54:24;;;;;;;7.80;3.40;;;;;;;;;;5060806;28;20055;-80
2023/06/24 13:56:51;;;;;;;5.70;3.60;;;;;;;;;;5048479;28;20041;-79
2023/06/24 13:59:17;;;;;;;8.25;3.40;;;;;;;;;;5041456;28;20120;-79
2023/06/24 14:01:44;;;;;;;5.07;3.60;;;;;;;;;;5022013;28;20042;-79
2023/06/24 14:04:11;;;;;;;6.78;3.08;;;;;;;;;;5040257;28;20052;-80
2023/06/24 14:06:37;;;;;;;7.57;3.45;;;;;;;;;;5039125;28;20396;-80
2023/06/24 14:09:04;;;;;;;7.82;3.25;;;;;;;;;;5041449;28;20041;-82
2023/06/24 14:11:31;;;;;;;5.55;3.55;;;;;;;;;;5023003;28;20045;-80
2023/06/24 14:13:57;;;;;;;5.57;3.25;;;;;;;;;;5042524;28;20056;-80
2023/06/24 14:16:24;;;;;;;5.53;3.28;;;;;;;;;;5061040;28;20159;-79
2023/06/24 14:18:51;;;;;;;5.80;3.38;;;;;;;;;;5061070;28;20049;-79
2023/06/24 14:21:17;;;;;;;5.47;3.05;;;;;;;;;;5059678;28;20045;-79
2023/06/24 14:23:44;;;;;;;5.88;3.38;;;;;;;;;;5062923;28;20041;-82
2023/06/24 14:26:10;;;;;;;4.85;2.97;;;;;;;;;;5044035;28;20048;-78
2023/06/24 14:28:37;;;;;;;5.82;3.40;;;;;;;;;;5052197;28;20139;-78
2023/06/24 14:31:04;;;;;;;6.25;3.30;;;;;;;;;;5062373;28;20045;-80
2023/06/24 14:33:30;;;;;;;6.40;3.40;;;;;;;;;;5062774;28;20041;-80